Penang/Bayan Lepas, Malaysia
Current Conditions -  °F | °C
As of 11:30 PM on Friday 19 Dec 2014 (Local Time) from WMKP Reporting Station
Broken Clouds Broken Clouds  
Wind Chill: 82°   Ceiling: 28000
Heat Index: 88°   Visibility: 6mi
Dew Point: 73°   Wind: 9mph
Humidity: 74%   Direction: 30°NNE
Pressure: 29.85"   Gusts: NA
Location:  5.29°N, 100.28°E
Report Text: WMKP 191530Z 03008KT 9000 FEW025 SCT140 BKN280 28/23 Q1011 NOSIG
Loading
Personal Weather Stations






























Interactive Weather Map New forecast layout! Learn more

10-Day Weather Forecast

Advertisements
Track Severe Weather on mobile